Latest Weather Observations for Norah Head

IDN60901

Issued at 6:02 pm EST Saturday 5 September 2026 (issued every 10 minutes, with the page automatically refreshed every 10 minutes)

About weather observations | Map of Sydney area stations | Latest observations for Sydney area | Other Formats
Station Details ID: 061366 Name: NORAH HEAD AWS Lat: -33.28 Lon: 151.58 Height: 18.8 m
Data from the previous 72 hours. | See also: Recent months at Norah Head
Date/Time
EST
Temp
°C
App
Temp
°C
Dew
Point
°C
Rel
Hum
%
Delta-T
°C
Wind Press
QNH
hPa
Press
MSL
hPa
Rain since
9am
mm
Dir  Spd
km/h
Gust
km/h
Spd
kts
Gust
kts
05/06:00pm 23.6 21.6 12.6 50 6.3 WNW 15 35 8 19 1010.4 1010.3 0.2
05/05:30pm 21.8 19.4 14.4 63 4.3 W 20 43 11 23 1010.4 1010.3 0.2
05/05:24pm 22.6 18.7 13.4 56 5.3 WSW 26 46 14 25 1010.4 1010.3 0.2
05/05:12pm 27.9 26.3 10.1 33 10.0 WNW 9 26 5 14 1009.4 1009.3 0.0
05/05:00pm 27.1 24.1 10.8 36 9.2 NNW 17 32 9 17 1007.2 1007.2 0.0
05/04:30pm 28.4 26.1 10.6 33 10.1 NW 13 30 7 16 1006.8 1006.8 0.0
05/04:00pm 28.1 24.0 11.6 36 9.5 NNW 24 37 13 20 1006.4 1006.4 0.0
05/03:30pm 28.2 24.2 11.7 36 9.5 NNW 24 41 13 22 1006.4 1006.4 0.0
05/03:00pm 29.7 27.4 10.3 30 11.0 NW 13 39 7 21 1006.8 1006.8 0.0
05/02:38pm 27.8 24.2 11.8 37 9.2 NNW 22 35 12 19 1007.0 1007.0 0.0
05/02:30pm 22.8 18.8 15.1 62 4.6 N 30 43 16 23 1007.2 1007.2 0.0
05/02:26pm 22.0 17.6 15.6 67 3.8 N 33 46 18 25 1007.4 1007.4 0.0
05/02:00pm 21.6 16.6 16.1 71 3.3 NE 37 48 20 26 1007.7 1007.7 0.0
05/01:30pm 21.6 17.2 15.7 69 3.5 NE 33 39 18 21 1008.5 1008.5 0.0
05/01:00pm 21.3 16.4 15.4 69 3.5 NNE 35 39 19 21 1009.2 1009.2 0.0
05/12:30pm 21.8 16.5 15.4 67 3.8 NE 37 41 20 22 1010.5 1010.4 0.0
05/12:00pm 21.8 17.1 14.9 65 4.1 NNE 33 37 18 20 1011.5 1011.4 0.0
05/11:30am 23.9 20.8 15.7 60 5.0 NNE 26 32 14 17 1012.4 1012.3 0.0
05/11:00am 23.4 20.0 13.8 54 5.6 NNE 24 26 13 14 1013.2 1013.1 0.0
05/10:30am 23.8 21.6 14.5 56 5.5 NNE 19 20 10 11 1014.1 1014.0 0.0
05/10:00am 23.6 21.9 13.5 53 5.9 NNE 15 19 8 10 1014.8 1014.7 0.0
05/09:30am 22.6 22.2 13.1 55 5.5 NNE 7 9 4 5 1015.5 1015.4 0.0
05/09:00am 22.0 21.5 12.0 53 5.6 NNW 6 9 3 5 1015.9 1015.8 0.0
05/08:30am 21.5 20.8 11.5 53 5.6 NNW 6 7 3 4 1016.2 1016.1 0.0
05/08:00am 19.9 19.0 9.2 50 5.6 NW 4 7 2 4 1016.3 1016.2 0.0
05/07:30am 19.5 18.1 8.8 50 5.6 NW 6 11 3 6 1016.2 1016.1 0.0
05/07:00am 17.9 16.4 8.5 54 4.8 NW 6 9 3 5 1016.0 1015.9 0.0
05/06:30am 17.5 15.3 6.4 48 5.5 WNW 7 17 4 9 1016.3 1016.2 0.0
05/06:00am 17.3 14.9 6.8 50 5.2 WNW 9 19 5 10 1016.1 1016.0 0.0
05/05:30am 16.8 14.9 7.4 54 4.7 WNW 7 17 4 9 1016.1 1016.0 0.0
05/05:00am 16.2 15.0 9.4 64 3.5 NW 6 11 3 6 1016.4 1016.3 0.0
05/04:30am 15.8 14.3 8.5 62 3.7 NW 6 7 3 4 1016.5 1016.4 0.0
05/04:00am 15.4 14.4 10.2 71 2.7 NNW 6 7 3 4 1016.4 1016.3 0.0
05/03:30am 16.3 15.1 8.0 58 4.2 NW 4 9 2 5 1016.4 1016.3 0.0
05/03:00am 16.4 14.7 8.4 59 4.1 WNW 7 17 4 9 1016.5 1016.4 0.0
05/02:30am 15.1 13.8 9.9 71 2.7 NNW 7 9 4 5 1016.9 1016.8 0.0
05/02:00am 15.1 14.3 9.7 70 2.8 WNW 4 7 2 4 1017.6 1017.5 0.0
05/01:30am 15.5 14.4 10.1 70 2.8 WNW 6 9 3 5 1018.0 1017.9 0.0
05/01:00am 16.9 13.9 9.3 61 3.9 W 15 19 8 10 1018.2 1018.1 0.0
05/12:30am 18.4 15.9 8.4 52 5.2 W 11 13 6 7 1018.3 1018.2 0.0
05/12:00am 17.6 15.0 9.2 58 4.4 W 13 17 7 9 1018.3 1018.2 0.0
 
Date/Time
EST
Temp
°C
App
Temp
°C
Dew
Point
°C
Rel
Hum
%
Delta-T
°C
Wind Press
QNH
hPa
Press
MSL
hPa
Rain since
9am
mm
Dir  Spd
km/h
Gust
km/h
Spd
kts
Gust
kts
04/11:30pm 16.9 15.3 10.3 65 3.5 W 9 15 5 8 1018.6 1018.5 0.0
04/11:00pm 14.6 15.3 12.3 86 1.2 CALM 0 2 0 1 1018.6 1018.5 0.0
04/10:30pm 14.8 15.5 12.1 84 1.5 CALM 0 6 0 3 1018.9 1018.8 0.0
04/10:00pm 15.7 15.5 13.0 84 1.5 W 6 9 3 5 1018.9 1018.8 0.0
04/09:30pm 16.5 16.1 12.3 76 2.3 W 6 6 3 3 1019.2 1019.1 0.0
04/09:00pm 16.5 16.1 12.5 77 2.2 SW 6 11 3 6 1019.2 1019.1 0.0
04/08:30pm 15.9 16.3 12.5 80 1.9 NW 2 4 1 2 1018.6 1018.5 0.0
04/08:00pm 16.6 15.0 12.8 78 2.1 N 13 17 7 9 1018.3 1018.2 0.0
04/07:30pm 17.4 14.9 13.5 78 2.2 N 19 30 10 16 1018.2 1018.1 0.0
04/07:00pm 17.8 13.5 13.3 75 2.5 NNE 28 32 15 17 1017.6 1017.5 0.0
04/06:30pm 17.8 13.5 13.3 75 2.5 NNE 28 33 15 18 1017.6 1017.5 0.0
04/06:00pm 17.7 13.4 13.2 75 2.5 NE 28 33 15 18 1017.3 1017.2 0.0
04/05:30pm 17.3 13.0 12.2 72 2.8 NE 26 30 14 16 1017.2 1017.1 0.0
04/05:00pm 17.3 13.7 12.0 71 2.9 NE 22 28 12 15 1017.1 1017.0 0.0
04/04:30pm 18.6 15.6 11.9 65 3.7 NE 19 22 10 12 1017.1 1017.0 0.0
04/04:00pm 18.9 16.2 11.7 63 4.0 ENE 17 20 9 11 1017.3 1017.2 0.0
04/03:30pm 19.1 15.7 11.2 60 4.3 ENE 20 22 11 12 1017.4 1017.3 0.0
04/03:00pm 19.9 17.3 11.9 60 4.4 ENE 17 20 9 11 1017.9 1017.8 0.0
04/02:30pm 20.2 18.3 11.7 58 4.7 ENE 13 15 7 8 1018.1 1018.0 0.0
04/02:00pm 20.3 18.5 11.0 55 5.1 ENE 11 15 6 8 1018.3 1018.2 0.0
04/01:30pm 20.3 18.0 10.4 53 5.4 ENE 13 17 7 9 1018.7 1018.6 0.0
04/01:00pm 20.7 18.7 11.6 56 5.0 ENE 13 17 7 9 1019.0 1018.9 0.0
04/12:30pm 20.4 18.3 9.6 50 5.8 ESE 11 13 6 7 1019.5 1019.4 0.0
04/12:00pm 20.4 18.6 9.3 49 5.9 ESE 9 11 5 6 1020.3 1020.2 0.0
04/11:30am 20.3 18.8 9.2 49 5.9 SE 7 9 4 5 1020.7 1020.6 0.0
04/11:00am 21.2 20.5 11.5 54 5.4 SSE 6 9 3 5 1021.2 1021.1 0.0
04/10:30am 19.8 18.6 8.2 47 6.0 W 4 9 2 5 1021.5 1021.4 0.0
04/10:00am 19.1 17.3 7.8 48 5.8 SW 7 15 4 8 1021.7 1021.6 0.0
04/09:30am 18.6 16.9 8.3 51 5.3 WSW 7 17 4 9 1021.9 1021.8 0.0
04/09:00am 17.8 15.1 7.5 51 5.2 WSW 11 22 6 12 1022.0 1021.9 0.0
04/08:30am 17.2 15.5 8.4 56 4.5 WSW 7 13 4 7 1022.0 1021.9 0.0
04/08:00am 16.1 13.9 7.8 58 4.2 WSW 9 17 5 9 1021.9 1021.8 0.0
04/07:30am 15.2 13.9 7.7 61 3.7 W 4 11 2 6 1021.6 1021.5 0.0
04/07:00am 14.2 12.3 7.7 65 3.2 W 7 13 4 7 1021.3 1021.2 0.0
04/06:30am 13.0 11.3 7.5 69 2.7 WNW 6 9 3 5 1021.1 1021.0 0.0
04/06:00am 12.5 10.7 8.0 74 2.2 NW 7 11 4 6 1021.0 1020.9 0.0
04/05:30am 12.9 11.2 8.4 74 2.2 NW 7 9 4 5 1020.7 1020.6 0.0
04/05:00am 13.9 12.7 7.9 67 3.0 NNW 4 7 2 4 1020.4 1020.3 0.0
04/04:30am 14.7 12.9 7.3 61 3.6 W 6 13 3 7 1020.1 1020.0 0.0
04/04:00am 14.8 12.4 7.1 60 3.8 W 9 17 5 9 1019.7 1019.6 0.0
04/03:30am 14.8 12.5 7.4 61 3.7 WSW 9 15 5 8 1019.6 1019.5 0.0
04/03:00am 15.2 12.5 7.3 59 3.9 WSW 11 17 6 9 1019.6 1019.5 0.0
04/02:30am 15.3 13.5 7.1 58 4.0 WSW 6 11 3 6 1020.0 1019.9 0.0
04/02:00am 15.6 12.1 7.1 57 4.2 WSW 15 20 8 11 1019.7 1019.6 0.0
04/01:30am 16.3 13.6 7.5 56 4.4 WSW 11 17 6 9 1020.2 1020.1 0.0
04/01:00am 16.3 14.5 7.8 57 4.3 SW 7 15 4 8 1019.6 1019.5 0.0
04/12:30am 16.7 13.3 7.6 55 4.6 WSW 15 24 8 13 1019.3 1019.2 0.0
04/12:00am 17.1 14.1 7.5 53 4.8 WSW 13 19 7 10 1019.4 1019.3 0.0
 
Date/Time
EST
Temp
°C
App
Temp
°C
Dew
Point
°C
Rel
Hum
%
Delta-T
°C
Wind Press
QNH
hPa
Press
MSL
hPa
Rain since
9am
mm
Dir  Spd
km/h
Gust
km/h
Spd
kts
Gust
kts
03/11:30pm 17.6 14.4 6.8 49 5.4 WSW 13 22 7 12 1019.2 1019.1 0.0
03/11:00pm 17.9 15.3 6.1 46 5.8 W 9 17 5 9 1018.6 1018.5 0.0
03/10:30pm 18.3 15.4 6.5 46 5.9 WSW 11 19 6 10 1018.2 1018.1 0.0
03/10:00pm 18.8 15.7 5.6 42 6.4 WSW 11 20 6 11 1017.7 1017.6 0.0
03/09:30pm 19.6 16.1 5.6 40 6.9 WSW 13 19 7 10 1017.4 1017.3 0.0
03/09:00pm 20.2 17.4 5.1 37 7.4 WSW 9 17 5 9 1016.9 1016.8 0.0
03/08:30pm 19.6 17.4 6.4 42 6.6 WNW 7 15 4 8 1016.5 1016.4 0.0
03/08:00pm 20.0 17.8 6.4 41 6.8 WNW 7 11 4 6 1016.1 1016.0 0.0
03/07:30pm 21.0 18.8 6.2 38 7.4 W 7 11 4 6 1015.6 1015.5 0.0
03/07:00pm 21.7 19.2 6.4 37 7.8 W 9 13 5 7 1015.1 1015.0 0.0
03/06:30pm 22.2 18.8 6.0 35 8.2 WSW 13 20 7 11 1014.4 1014.3 0.0
03/06:00pm 22.7 20.2 6.5 35 8.3 WSW 9 13 5 7 1013.8 1013.7 0.0
03/05:30pm 23.5 20.9 6.3 33 8.8 WSW 9 15 5 8 1013.3 1013.2 0.0
03/05:00pm 24.5 21.6 6.7 32 9.2 W 11 20 6 11 1012.7 1012.6 0.0
03/04:30pm 25.0 22.1 6.7 31 9.5 WSW 11 20 6 11 1012.3 1012.2 0.0
03/04:00pm 26.0 23.4 7.6 31 9.8 W 11 19 6 10 1012.0 1011.9 0.0
03/03:30pm 26.1 22.8 6.2 28 10.3 WSW 13 28 7 15 1011.6 1011.5 0.0
03/03:00pm 26.4 22.6 5.9 27 10.6 WSW 15 28 8 15 1011.6 1011.5 0.0
03/02:30pm 26.9 22.7 5.8 26 10.9 WSW 17 28 9 15 1011.3 1011.2 0.0
03/02:00pm 26.9 22.7 5.8 26 10.9 WSW 17 33 9 18 1010.8 1010.7 0.0
03/01:30pm 27.0 23.1 6.9 28 10.6 SW 17 26 9 14 1010.6 1010.5 0.0
03/01:00pm 27.3 23.9 7.7 29 10.5 SW 15 26 8 14 1010.4 1010.3 0.0
03/12:30pm 27.6 23.9 6.4 26 11.1 WSW 15 32 8 17 1010.3 1010.2 0.0
03/12:00pm 26.5 23.1 7.5 30 10.1 WSW 15 33 8 18 1010.2 1010.1 0.0
03/11:30am 27.9 25.8 9.7 32 10.1 W 11 24 6 13 1010.1 1010.0 0.0
03/11:00am 27.3 24.0 9.6 33 9.8 W 17 39 9 21 1010.2 1010.1 0.0
03/10:30am 27.1 23.8 9.5 33 9.7 WNW 17 32 9 17 1009.9 1009.8 0.0
03/10:00am 26.6 25.4 10.3 36 9.1 WSW 7 22 4 12 1009.8 1009.7 0.0
03/09:30am 25.9 23.5 10.1 37 8.8 NW 13 35 7 19 1009.7 1009.6 0.0
03/09:00am 25.2 23.3 10.6 39 8.2 NW 11 24 6 13 1009.9 1009.8 0.0
03/08:30am 23.4 19.2 12.4 50 6.3 NNW 26 35 14 19 1009.7 1009.6 0.0
03/08:00am 20.9 16.3 13.4 62 4.3 N 30 32 16 17 1009.9 1009.8 0.0
03/07:30am 19.8 17.4 13.7 68 3.5 N 19 20 10 11 1010.5 1010.4 0.0
03/07:00am 18.2 16.8 13.3 73 2.8 N 13 17 7 9 1010.5 1010.4 0.0
03/06:30am 18.1 17.7 13.0 72 2.9 NNE 7 9 4 5 1010.6 1010.5 0.0
03/06:00am 19.4 18.7 10.1 55 5.0 WSW 4 9 2 5 1011.0 1010.9 0.0
03/05:30am 19.0 16.4 12.0 64 3.9 NNW 17 19 9 10 1010.9 1010.8 0.0
03/05:00am 19.4 14.9 11.4 60 4.4 N 26 28 14 15 1010.4 1010.3 0.0
03/04:30am 19.1 15.5 11.9 63 4.0 N 22 24 12 13 1010.5 1010.4 0.0
03/04:00am 19.1 17.1 12.8 67 3.5 N 15 17 8 9 1011.1 1011.0 0.0
03/03:30am 19.2 17.0 12.0 63 4.0 NNW 15 19 8 10 1011.5 1011.4 0.0
03/03:00am 19.9 19.4 10.6 55 5.0 WNW 4 11 2 6 1011.8 1011.7 0.0
03/02:30am 18.2 17.2 12.2 68 3.3 NNW 9 13 5 7 1012.1 1012.0 0.0
03/02:00am 18.7 16.9 12.0 65 3.7 NNW 13 17 7 9 1012.3 1012.2 0.0
03/01:30am 18.6 16.5 12.4 67 3.5 NNW 15 17 8 9 1012.9 1012.8 0.0
03/01:00am 18.4 16.5 11.7 65 3.7 NNW 13 17 7 9 1013.5 1013.4 0.0
03/12:30am 18.3 16.9 10.9 62 4.0 NNW 9 15 5 8 1013.6 1013.5 0.0
03/12:00am 18.1 17.6 12.5 70 3.1 NNW 7 7 4 4 1013.7 1013.6 0.0
 
Date/Time
EST
Temp
°C
App
Temp
°C
Dew
Point
°C
Rel
Hum
%
Delta-T
°C
Wind Press
QNH
hPa
Press
MSL
hPa
Rain since
9am
mm
Dir  Spd
km/h
Gust
km/h
Spd
kts
Gust
kts
02/11:30pm 19.7 19.1 9.0 50 5.6 WNW 2 6 1 3 1014.0 1013.9 0.0
02/11:00pm 19.9 18.8 8.6 48 5.9 WNW 4 7 2 4 1014.1 1014.0 0.0
02/10:30pm 19.3 18.4 9.2 52 5.3 NW 4 7 2 4 1014.5 1014.4 0.0
02/10:00pm 19.9 18.8 8.3 47 6.0 NW 4 6 2 3 1014.7 1014.6 0.0
02/09:30pm 20.6 19.5 8.6 46 6.3 NW 4 7 2 4 1014.9 1014.8 0.0
02/09:00pm 21.0 20.0 8.9 46 6.4 WNW 4 9 2 5 1014.9 1014.8 0.0
02/08:30pm 20.4 19.4 9.0 48 6.0 NW 4 9 2 5 1014.7 1014.6 0.0
02/08:00pm 21.2 20.3 9.1 46 6.4 NW 4 7 2 4 1014.4 1014.3 0.0
02/07:30pm 22.3 21.3 8.8 42 7.2 WNW 4 7 2 4 1014.3 1014.2 0.0
02/07:00pm 22.9 21.7 8.2 39 7.8 WNW 4 9 2 5 1014.0 1013.9 0.0
02/06:30pm 24.1 22.6 8.5 37 8.3 WNW 6 9 3 5 1013.8 1013.7 0.0

Latest Capital City Observations: Canberra | Sydney | Melbourne | Brisbane | Adelaide | Perth | Hobart | Darwin

Other formats

Comma delimited format used in spreadsheet applications
http://www.bom.gov.au/fwo/IDN60901/IDN60901.95770.axf

JavaScript Object Notation format (JSON) in row-major order
http://www.bom.gov.au/fwo/IDN60901/IDN60901.95770.json

Data quality

Most of these data are generated automatically and are frequently updated. Quality checks on data are not normally performed. It is possible for incorrect values to appear. Refer to information at About Latest Weather Observations and please check the disclaimer before using these data.